Time;durP1;ratioP1;P1;durP2;ratioP2;P2;SDS_P1;SDS_P2;PMS_P1;PMS_P2;Temp;Humidity;BMP_temperature;BMP_pressure;BME280_temperature;BME280_humidity;BME280_pressure;Samples;Min_cycle;Max_cycle;Signal;HPM_P1;HPM_P2
2021/01/06 00:02:08;;;;;;;1.63;1.30;;;6.90;99.90;;;;;;5054878;28;20059;-79
2021/01/06 00:04:33;;;;;;;2.22;1.90;;;6.80;99.90;;;;;;5055173;28;20090;-78
2021/01/06 00:06:59;;;;;;;1.50;1.40;;;6.80;99.90;;;;;;5054596;28;20092;-79
2021/01/06 00:09:24;;;;;;;2.90;2.15;;;6.80;99.90;;;;;;5054946;28;20020;-78
2021/01/06 00:11:50;;;;;;;2.75;2.00;;;6.80;99.90;;;;;;5054219;28;20017;-77
2021/01/06 00:14:16;;;;;;;4.22;2.67;;;6.90;99.90;;;;;;5041617;28;20028;-78
2021/01/06 00:16:42;;;;;;;2.35;1.50;;;6.90;99.90;;;;;;5054661;28;20021;-77
2021/01/06 00:19:12;;;;;;;1.75;1.65;;;6.90;99.90;;;;;;5054272;28;20484;-77
2021/01/06 00:21:41;;;;;;;1.48;1.38;;;6.90;99.90;;;;;;5054739;28;20048;-76
2021/01/06 00:24:07;;;;;;;1.20;1.20;;;6.90;99.90;;;;;;5054593;28;20021;-77
2021/01/06 00:26:34;;;;;;;1.50;1.27;;;7.00;99.90;;;;;;5054433;28;20419;-77
2021/01/06 00:29:00;;;;;;;1.30;1.20;;;7.00;99.90;;;;;;5054383;28;20072;-76
2021/01/06 00:31:26;;;;;;;0.98;0.98;;;7.00;99.90;;;;;;5054242;28;20406;-77
2021/01/06 00:33:52;;;;;;;1.00;1.00;;;7.10;99.90;;;;;;5054076;28;20040;-78
2021/01/06 00:36:20;;;;;;;2.10;1.55;;;7.10;99.90;;;;;;5036470;28;20021;-77
2021/01/06 00:38:46;;;;;;;1.50;1.40;;;7.00;99.90;;;;;;5053493;28;20029;-78
2021/01/06 00:41:11;;;;;;;1.67;1.50;;;7.00;99.90;;;;;;5017964;28;20036;-79
2021/01/06 00:43:37;;;;;;;2.03;1.60;;;7.10;99.90;;;;;;5039284;28;20020;-77
2021/01/06 00:46:03;;;;;;;5.07;1.40;;;7.10;99.90;;;;;;5023941;28;20470;-77
2021/01/06 00:48:29;;;;;;;1.50;1.40;;;7.10;99.90;;;;;;5034170;28;20020;-78
2021/01/06 00:50:55;;;;;;;3.05;1.85;;;7.10;99.90;;;;;;5033928;28;20354;-78
2021/01/06 00:53:24;;;;;;;4.40;2.42;;;7.20;99.90;;;;;;5034104;28;20108;-76
2021/01/06 00:55:54;;;;;;;3.22;2.03;;;7.10;99.90;;;;;;5034025;28;20049;-78
2021/01/06 00:58:21;;;;;;;4.50;2.45;;;7.00;99.90;;;;;;5033598;28;20025;-77
2021/01/06 01:00:46;;;;;;;3.15;1.95;;;7.00;99.90;;;;;;5033372;28;20080;-78
2021/01/06 01:03:14;;;;;;;1.63;1.40;;;7.00;99.90;;;;;;5033810;28;20065;-79
2021/01/06 01:05:39;;;;;;;1.50;1.40;;;7.00;99.90;;;;;;5011385;28;20021;-76
2021/01/06 01:08:09;;;;;;;1.55;1.40;;;7.00;99.90;;;;;;5033814;28;20022;-78
2021/01/06 01:10:41;;;;;;;2.17;1.60;;;6.90;99.90;;;;;;5032079;28;20170;-77
2021/01/06 01:13:10;;;;;;;3.80;2.03;;;7.00;99.90;;;;;;5033308;28;20017;-78
2021/01/06 01:15:37;;;;;;;2.08;1.30;;;7.00;99.90;;;;;;5033466;28;20027;-79
2021/01/06 01:18:05;;;;;;;1.45;1.30;;;7.00;99.90;;;;;;5033605;28;20085;-78
2021/01/06 01:20:30;;;;;;;1.50;1.40;;;7.00;99.90;;;;;;5033452;28;20040;-78
2021/01/06 01:22:56;;;;;;;1.30;1.20;;;7.00;99.90;;;;;;5033349;28;20026;-77
2021/01/06 01:25:26;;;;;;;2.20;1.25;;;7.00;99.90;;;;;;5033322;28;20040;-79
2021/01/06 01:27:53;;;;;;;1.20;1.10;;;6.90;99.90;;;;;;5033146;28;20698;-79
2021/01/06 01:30:25;;;;;;;1.50;1.40;;;6.90;99.90;;;;;;5033693;28;20030;-79
2021/01/06 01:32:51;;;;;;;1.83;1.48;;;6.90;99.90;;;;;;5033204;28;20025;-76
2021/01/06 01:35:20;;;;;;;1.70;1.60;;;6.90;99.90;;;;;;5033497;28;20045;-77
2021/01/06 01:37:46;;;;;;;1.40;1.30;;;7.00;99.90;;;;;;5033043;28;20037;-77
2021/01/06 01:40:20;;;;;;;3.22;1.65;;;7.00;99.90;;;;;;5032965;28;20068;-79
2021/01/06 01:42:51;;;;;;;1.52;1.42;;;7.00;99.90;;;;;;5032886;28;20009;-76
2021/01/06 01:45:16;;;;;;;2.15;1.55;;;7.00;99.90;;;;;;5025578;28;20029;-78
2021/01/06 01:47:57;;;;;;;1.42;1.33;;;7.00;99.90;;;;;;5052664;28;20071;-76
2021/01/06 01:50:23;;;;;;;2.00;1.80;;;7.00;99.90;;;;;;5052502;28;20028;-77
2021/01/06 01:52:55;;;;;;;1.85;1.30;;;7.00;99.90;;;;;;5022956;28;20023;-77
2021/01/06 01:55:22;;;;;;;3.20;1.70;;;6.90;99.90;;;;;;5051757;28;20021;-77
2021/01/06 01:57:55;;;;;;;2.22;1.48;;;7.00;99.90;;;;;;5023646;28;20504;-77
2021/01/06 02:00:24;;;;;;;1.75;1.40;;;7.00;99.90;;;;;;5050812;28;20072;-77
2021/01/06 02:03:12;;;;;;;1.58;1.48;;;7.00;99.90;;;;;;5052882;28;20040;-77
2021/01/06 02:06:02;;;;;;;1.85;1.40;;;7.00;99.90;;;;;;5052329;28;20028;-77
2021/01/06 02:08:33;;;;;;;1.60;1.50;;;7.00;99.90;;;;;;5052327;28;20036;-77
2021/01/06 02:11:16;;;;;;;2.33;1.33;;;7.00;99.90;;;;;;5052743;28;20024;-77
2021/01/06 02:13:50;;;;;;;2.75;1.80;;;7.10;99.90;;;;;;5052016;28;20025;-78
2021/01/06 02:16:31;;;;;;;1.50;1.40;;;7.00;99.90;;;;;;5052406;28;20369;-77
2021/01/06 02:18:57;;;;;;;2.78;1.55;;;7.00;99.90;;;;;;5052069;28;20028;-77
2021/01/06 02:21:25;;;;;;;1.90;1.45;;;7.00;99.90;;;;;;5052370;28;20032;-77
2021/01/06 02:23:53;;;;;;;1.60;1.40;;;7.00;99.90;;;;;;5052032;28;20013;-78
2021/01/06 02:26:20;;;;;;;1.30;1.20;;;7.10;99.90;;;;;;5026241;28;20388;-78
2021/01/06 02:28:48;;;;;;;1.23;1.13;;;7.20;99.90;;;;;;5046016;28;20457;-77
2021/01/06 02:31:15;;;;;;;6.72;1.50;;;7.10;99.90;;;;;;5052439;28;20091;-77
2021/01/06 02:33:42;;;;;;;1.83;1.10;;;7.10;99.90;;;;;;5052408;28;20048;-78
2021/01/06 02:36:08;;;;;;;1.30;1.20;;;7.10;99.90;;;;;;5052287;28;20381;-77
2021/01/06 02:38:34;;;;;;;1.52;1.38;;;7.10;99.90;;;;;;5052037;28;20025;-79
2021/01/06 02:41:01;;;;;;;1.30;1.20;;;7.10;99.90;;;;;;5052138;28;20028;-77
2021/01/06 02:43:28;;;;;;;1.70;1.20;;;7.10;99.90;;;;;;5047115;28;20021;-76
2021/01/06 02:45:55;;;;;;;1.95;1.30;;;7.10;99.90;;;;;;5043583;28;20036;-76
2021/01/06 02:48:22;;;;;;;1.40;1.30;;;7.10;99.90;;;;;;5051981;28;20037;-77
2021/01/06 02:50:52;;;;;;;5.20;1.23;;;7.10;99.90;;;;;;5052143;28;20072;-77
2021/01/06 02:53:36;;;;;;;1.27;1.17;;;7.10;99.90;;;;;;5051869;28;20032;-78
2021/01/06 02:56:03;;;;;;;5.13;1.30;;;7.10;99.90;;;;;;5051741;28;20503;-77
2021/01/06 02:58:30;;;;;;;1.75;1.50;;;7.10;99.90;;;;;;5051256;28;20508;-76
2021/01/06 03:00:56;;;;;;;2.60;1.35;;;7.10;99.90;;;;;;5051948;28;20036;-78
2021/01/06 03:03:28;;;;;;;1.40;1.30;;;7.00;99.90;;;;;;5055541;28;20017;-77
2021/01/06 03:06:12;;;;;;;1.42;1.23;;;7.00;99.90;;;;;;5056024;28;20071;-77
2021/01/06 03:08:39;;;;;;;1.27;1.17;;;7.00;99.90;;;;;;5055859;28;20048;-79
2021/01/06 03:11:07;;;;;;;1.40;1.13;;;7.00;99.90;;;;;;5056053;28;20469;-77
2021/01/06 03:13:33;;;;;;;2.00;1.80;;;7.00;99.90;;;;;;5055613;28;20055;-77
2021/01/06 03:15:59;;;;;;;3.08;1.40;;;7.00;99.90;;;;;;5055847;28;20032;-79
2021/01/06 03:18:25;;;;;;;1.77;1.60;;;7.00;99.90;;;;;;5055833;28;20025;-77
2021/01/06 03:20:53;;;;;;;1.30;1.20;;;7.00;99.90;;;;;;5055602;28;20033;-76
2021/01/06 03:23:47;;;;;;;1.75;1.33;;;7.00;99.90;;;;;;5055967;28;20519;-76
2021/01/06 03:26:18;;;;;;;5.18;1.33;;;7.00;99.90;;;;;;5030227;28;20028;-78
2021/01/06 03:28:46;;;;;;;1.23;1.23;;;6.90;99.90;;;;;;5055942;28;20052;-79
2021/01/06 03:31:45;;;;;;;1.35;1.25;;;6.90;99.90;;;;;;5055400;28;20555;-78
2021/01/06 03:34:23;;;;;;;4.43;1.40;;;7.00;99.90;;;;;;5055515;28;20441;-79
2021/01/06 03:37:04;;;;;;;2.88;1.40;;;7.00;99.90;;;;;;5027360;28;20543;-77
2021/01/06 03:39:36;;;;;;;1.48;1.38;;;7.00;99.90;;;;;;5050286;28;20029;-77
2021/01/06 03:42:03;;;;;;;1.52;1.40;;;7.00;99.90;;;;;;5033947;28;20044;-79
2021/01/06 03:44:30;;;;;;;1.50;1.40;;;7.00;99.90;;;;;;5035070;28;20018;-79
2021/01/06 03:47:05;;;;;;;1.52;1.42;;;7.00;99.90;;;;;;5035369;28;20481;-77
2021/01/06 03:49:38;;;;;;;1.38;1.27;;;7.00;99.90;;;;;;5034769;28;20052;-79
2021/01/06 03:52:27;;;;;;;1.35;1.25;;;7.00;99.90;;;;;;5034632;28;20025;-78
2021/01/06 03:55:24;;;;;;;1.30;1.20;;;6.90;99.90;;;;;;5016609;28;20397;-79
2021/01/06 03:57:53;;;;;;;1.50;1.40;;;6.90;99.90;;;;;;5022622;28;20080;-77
2021/01/06 04:00:49;;;;;;;1.45;1.27;;;6.90;99.90;;;;;;5034278;28;20523;-78
2021/01/06 04:03:41;;;;;;;2.67;1.80;;;7.00;99.90;;;;;;5025005;28;20032;-77
2021/01/06 04:06:09;;;;;;;2.85;1.63;;;7.00;99.90;;;;;;5030654;28;20379;-76
2021/01/06 04:08:49;;;;;;;3.78;1.55;;;7.00;99.90;;;;;;5034736;28;20442;-76
2021/01/06 04:11:19;;;;;;;5.05;1.58;;;7.00;99.90;;;;;;5034380;28;20032;-77
2021/01/06 04:13:45;;;;;;;3.35;1.40;;;7.00;99.90;;;;;;5034290;28;20057;-77
2021/01/06 04:16:13;;;;;;;3.92;1.77;;;7.00;99.90;;;;;;5034342;28;20540;-77
2021/01/06 04:18:40;;;;;;;3.97;1.60;;;7.00;99.90;;;;;;5034136;28;20381;-77
2021/01/06 04:21:06;;;;;;;1.50;1.40;;;7.10;99.90;;;;;;5033962;28;20033;-77
2021/01/06 04:23:33;;;;;;;1.52;1.35;;;7.10;99.90;;;;;;5034316;28;20051;-76
2021/01/06 04:25:59;;;;;;;5.38;1.63;;;7.10;99.90;;;;;;5033910;28;20068;-77
2021/01/06 04:28:28;;;;;;;2.20;1.58;;;7.10;99.90;;;;;;5033710;28;20413;-77
2021/01/06 04:30:55;;;;;;;1.50;1.40;;;7.10;99.90;;;;;;5034148;28;20435;-77
2021/01/06 04:33:33;;;;;;;2.85;1.40;;;7.10;99.90;;;;;;5033982;28;20037;-77
2021/01/06 04:36:01;;;;;;;1.73;1.40;;;7.10;99.90;;;;;;5033872;28;20029;-76
2021/01/06 04:38:29;;;;;;;1.40;1.30;;;7.20;99.90;;;;;;5033977;28;20021;-76
2021/01/06 04:40:58;;;;;;;4.20;1.60;;;7.20;99.90;;;;;;5033908;28;20041;-77
2021/01/06 04:43:27;;;;;;;1.90;1.67;;;7.20;99.90;;;;;;5033798;28;20021;-77
2021/01/06 04:46:18;;;;;;;5.45;1.85;;;7.20;99.90;;;;;;5033645;28;20034;-77
2021/01/06 04:49:17;;;;;;;2.38;1.83;;;7.20;99.90;;;;;;5033510;28;20031;-77
2021/01/06 04:51:52;;;;;;;2.80;1.60;;;7.20;99.90;;;;;;5033809;28;20029;-77
2021/01/06 04:54:48;;;;;;;1.63;1.52;;;7.20;99.90;;;;;;5033798;28;20022;-77
2021/01/06 04:57:14;;;;;;;2.08;1.88;;;7.10;99.90;;;;;;5021166;28;20025;-78
2021/01/06 05:00:15;;;;;;;7.50;3.30;;;7.20;99.90;;;;;;5033406;28;20049;-78
2021/01/06 05:02:49;;;;;;;8.05;3.50;;;7.10;99.90;;;;;;5023551;28;20084;-77
2021/01/06 05:05:30;;;;;;;3.25;2.75;;;7.20;99.90;;;;;;5033599;28;20009;-78
2021/01/06 05:08:07;;;;;;;3.60;2.28;;;7.20;99.90;;;;;;5033032;28;20025;-77
2021/01/06 05:10:37;;;;;;;5.00;1.80;;;7.20;99.90;;;;;;5015328;28;20435;-78
2021/01/06 05:13:19;;;;;;;2.00;1.80;;;7.20;99.90;;;;;;5033136;28;20022;-78
2021/01/06 05:15:55;;;;;;;2.33;2.00;;;7.20;99.90;;;;;;5032784;28;20024;-77
2021/01/06 05:18:20;;;;;;;4.85;2.33;;;7.20;99.90;;;;;;5015510;28;20080;-78
2021/01/06 05:20:46;;;;;;;5.25;2.40;;;7.20;99.90;;;;;;5015332;28;20041;-77
2021/01/06 05:23:18;;;;;;;4.70;2.40;;;7.10;99.90;;;;;;5033397;28;20424;-79
2021/01/06 05:25:44;;;;;;;1.60;1.50;;;7.10;99.90;;;;;;5032511;28;20469;-77
2021/01/06 05:28:18;;;;;;;4.60;2.00;;;7.10;99.90;;;;;;5033133;28;20044;-77
2021/01/06 05:30:45;;;;;;;2.30;1.90;;;7.10;99.90;;;;;;5032972;28;20025;-78
2021/01/06 05:33:16;;;;;;;2.75;1.83;;;7.10;99.90;;;;;;5032326;28;20021;-77
2021/01/06 05:35:47;;;;;;;2.22;1.90;;;7.10;99.90;;;;;;5032690;28;20026;-77
2021/01/06 05:38:13;;;;;;;5.28;1.90;;;7.10;99.90;;;;;;5032468;28;20060;-77
2021/01/06 05:40:41;;;;;;;4.00;1.95;;;7.10;99.90;;;;;;5033311;28;20072;-76
2021/01/06 05:43:18;;;;;;;2.20;1.75;;;7.10;99.90;;;;;;5049251;28;20381;-78
2021/01/06 05:45:52;;;;;;;3.45;1.70;;;7.20;99.90;;;;;;5032798;28;20029;-77
2021/01/06 05:48:29;;;;;;;2.65;1.50;;;7.20;99.90;;;;;;5032185;28;20093;-77
2021/01/06 05:51:10;;;;;;;3.40;1.80;;;7.10;99.90;;;;;;5015023;28;20445;-77
2021/01/06 05:53:46;;;;;;;4.43;2.35;;;7.10;99.90;;;;;;5032494;28;20049;-77
2021/01/06 05:56:22;;;;;;;3.58;2.30;;;7.10;99.90;;;;;;5032595;28;20022;-75
2021/01/06 05:58:55;;;;;;;3.08;2.60;;;7.10;99.90;;;;;;5032443;28;20037;-78
2021/01/06 06:01:35;;;;;;;5.50;3.92;;;7.10;99.90;;;;;;5032315;28;20037;-77
2021/01/06 06:04:37;;;;;;;6.65;3.42;;;7.00;99.90;;;;;;5035285;28;20100;-76
2021/01/06 06:07:42;;;;;;;3.10;2.15;;;7.00;99.90;;;;;;5034924;28;20044;-78
2021/01/06 06:10:54;;;;;;;2.05;1.70;;;7.00;99.90;;;;;;4991738;28;20373;-77
2021/01/06 06:13:35;;;;;;;2.58;2.05;;;7.00;99.90;;;;;;5003188;28;20041;-78
2021/01/06 06:16:28;;;;;;;5.32;3.30;;;7.00;99.90;;;;;;5031857;28;20033;-77
2021/01/06 06:19:21;;;;;;;4.03;2.50;;;7.00;99.90;;;;;;5031722;28;20052;-77
2021/01/06 06:22:04;;;;;;;;;;;7.00;99.90;;;;;;5017274;28;20033;-77
2021/01/06 06:24:44;;;;;;;2.58;1.90;;;7.00;99.90;;;;;;5031809;28;20343;-77
2021/01/06 06:27:47;;;;;;;6.72;1.88;;;7.00;99.90;;;;;;5032012;28;20491;-76
2021/01/06 06:30:27;;;;;;;4.40;2.08;;;7.10;99.90;;;;;;4987957;28;20057;-77
2021/01/06 06:32:53;;;;;;;2.58;1.90;;;7.10;99.90;;;;;;5034160;28;20021;-77
2021/01/06 06:35:19;;;;;;;3.70;1.88;;;7.10;99.90;;;;;;5019784;28;20471;-77
2021/01/06 06:37:55;;;;;;;2.22;1.73;;;7.00;99.90;;;;;;5030431;28;20108;-77
2021/01/06 06:40:21;;;;;;;4.47;2.05;;;7.00;99.90;;;;;;5031248;28;20056;-77
2021/01/06 06:42:50;;;;;;;2.50;2.17;;;7.00;99.90;;;;;;5013950;28;20116;-77
2021/01/06 06:45:28;;;;;;;3.42;2.00;;;7.00;99.90;;;;;;5031531;28;20528;-76
2021/01/06 06:48:45;;;;;;;4.10;3.33;;;7.00;99.90;;;;;;5026403;28;20025;-78
2021/01/06 06:51:44;;;;;;;6.75;3.38;;;7.00;99.90;;;;;;4987582;28;20048;-77
2021/01/06 06:54:17;;;;;;;2.45;2.25;;;7.00;99.90;;;;;;5019586;28;20025;-77
2021/01/06 06:56:55;;;;;;;3.88;2.13;;;7.00;99.90;;;;;;5031733;28;20489;-77
2021/01/06 06:59:31;;;;;;;2.78;2.00;;;7.00;99.90;;;;;;5031297;28;20401;-77
2021/01/06 07:02:03;;;;;;;2.90;1.88;;;7.00;99.90;;;;;;5031568;28;20029;-77
2021/01/06 07:04:41;;;;;;;3.08;1.90;;;7.00;99.90;;;;;;5013931;28;20355;-76
2021/01/06 07:07:16;;;;;;;3.90;2.40;;;7.00;99.90;;;;;;5031568;28;20033;-77
2021/01/06 07:09:49;;;;;;;6.35;2.40;;;7.00;99.90;;;;;;5013625;28;20033;-77
2021/01/06 07:12:15;;;;;;;3.97;2.45;;;7.00;99.90;;;;;;5031374;28;20021;-77
2021/01/06 07:15:02;;;;;;;3.33;2.30;;;6.90;99.90;;;;;;5031478;28;20036;-76
2021/01/06 07:17:35;;;;;;;4.10;2.15;;;6.90;99.90;;;;;;5031323;28;20397;-77
2021/01/06 07:20:10;;;;;;;5.15;1.80;;;6.90;99.90;;;;;;5031442;28;20417;-76
2021/01/06 07:22:46;;;;;;;4.28;2.28;;;6.90;99.90;;;;;;5013556;28;20080;-76
2021/01/06 07:25:18;;;;;;;3.03;2.13;;;6.90;99.90;;;;;;5013786;28;20022;-76
2021/01/06 07:28:12;;;;;;;2.33;2.00;;;6.90;99.90;;;;;;5031403;28;20026;-77
2021/01/06 07:30:46;;;;;;;3.30;2.10;;;6.90;99.90;;;;;;5031621;28;20025;-76
2021/01/06 07:33:26;;;;;;;6.10;2.70;;;6.90;99.90;;;;;;5031453;28;20025;-77
2021/01/06 07:35:52;;;;;;;5.85;2.10;;;6.90;99.90;;;;;;5031037;28;20028;-77
2021/01/06 07:38:20;;;;;;;3.42;2.03;;;6.90;99.90;;;;;;5031265;28;20112;-77
2021/01/06 07:40:57;;;;;;;3.30;1.98;;;6.90;99.90;;;;;;5030778;28;20041;-75
2021/01/06 07:43:28;;;;;;;3.55;1.98;;;6.90;99.90;;;;;;5037778;28;20030;-77
2021/01/06 07:46:00;;;;;;;7.88;2.20;;;6.90;99.90;;;;;;5038862;28;20056;-77
2021/01/06 07:48:31;;;;;;;2.97;2.10;;;6.90;99.90;;;;;;5026245;28;20028;-78
2021/01/06 07:51:26;;;;;;;4.07;2.22;;;6.90;99.90;;;;;;5034827;28;20017;-77
2021/01/06 07:54:01;;;;;;;3.85;1.95;;;6.90;99.90;;;;;;5035961;28;20679;-77
2021/01/06 07:56:36;;;;;;;5.05;2.15;;;7.00;99.90;;;;;;5048496;28;20017;-77
2021/01/06 07:59:13;;;;;;;5.43;1.90;;;7.10;99.90;;;;;;5049048;28;20045;-77
2021/01/06 08:01:55;;;;;;;2.72;2.33;;;7.20;99.90;;;;;;5052457;28;20056;-76
2021/01/06 08:04:27;;;;;;;4.93;2.13;;;7.30;99.90;;;;;;5053194;28;20021;-76
2021/01/06 08:06:56;;;;;;;3.05;2.10;;;7.30;99.90;;;;;;5053159;28;20049;-76
2021/01/06 08:09:41;;;;;;;5.72;2.10;;;7.30;99.90;;;;;;5049568;28;20075;-77
2021/01/06 08:12:23;;;;;;;6.10;2.60;;;7.30;99.90;;;;;;5046891;28;20018;-77
2021/01/06 08:15:04;;;;;;;4.68;2.10;;;7.20;99.90;;;;;;5050867;28;20009;-77
2021/01/06 08:17:41;;;;;;;5.43;2.83;;;7.30;99.90;;;;;;5051344;28;20025;-78
2021/01/06 08:20:10;;;;;;;3.30;2.00;;;7.40;99.90;;;;;;5050160;28;20036;-77
2021/01/06 08:23:00;;;;;;;7.85;2.45;;;7.80;99.90;;;;;;5050204;28;20021;-78
2021/01/06 08:25:29;;;;;;;13.45;2.22;;;8.50;99.90;;;;;;5048004;28;20020;-78
2021/01/06 08:27:55;;;;;;;7.60;2.63;;;8.90;99.90;;;;;;5047447;28;20386;-78
2021/01/06 08:30:26;;;;;;;11.05;4.78;;;9.70;99.90;;;;;;5042642;28;20033;-77
2021/01/06 08:33:03;;;;;;;5.47;2.20;;;10.30;99.90;;;;;;5050154;28;20052;-79
2021/01/06 08:35:33;;;;;;;5.90;2.55;;;11.00;99.90;;;;;;5050717;28;20025;-79
2021/01/06 08:38:00;;;;;;;19.58;10.18;;;11.20;99.90;;;;;;5052175;28;20049;-79
2021/01/06 08:40:39;;;;;;;29.52;16.02;;;11.00;99.90;;;;;;5046482;28;20473;-77
2021/01/06 08:43:11;;;;;;;9.57;5.38;;;10.60;99.90;;;;;;5040307;28;20024;-77
2021/01/06 08:45:38;;;;;;;20.00;10.00;;;10.20;99.90;;;;;;5049071;28;20039;-78
2021/01/06 08:48:25;;;;;;;7.88;3.92;;;10.10;99.90;;;;;;5048455;28;20076;-79
2021/01/06 08:50:52;;;;;;;5.38;2.97;;;9.80;99.90;;;;;;5047665;28;20021;-78
2021/01/06 08:53:30;;;;;;;56.40;32.40;;;9.50;99.90;;;;;;5029178;28;20017;-77
2021/01/06 08:55:59;;;;;;;43.97;24.83;;;9.20;99.90;;;;;;5038471;28;20032;-77
2021/01/06 08:58:45;;;;;;;10.55;6.03;;;9.00;99.90;;;;;;5031361;28;20032;-77
2021/01/06 09:01:27;;;;;;;7.53;4.53;;;8.80;99.90;;;;;;5038233;28;20394;-77
2021/01/06 09:04:08;;;;;;;8.45;6.70;;;8.70;99.90;;;;;;5033514;28;20022;-76
2021/01/06 09:06:45;;;;;;;6.32;3.30;;;8.50;99.90;;;;;;5035884;28;20494;-79
2021/01/06 09:09:33;;;;;;;6.28;2.75;;;8.30;99.90;;;;;;5033475;28;20033;-78
2021/01/06 09:11:58;;;;;;;5.97;3.28;;;8.20;99.90;;;;;;5049555;28;20405;-76
2021/01/06 09:14:36;;;;;;;61.30;35.72;;;8.00;99.90;;;;;;5050567;28;20194;-78
2021/01/06 09:17:20;;;;;;;23.17;14.27;;;7.90;99.90;;;;;;5047457;28;20047;-77
2021/01/06 09:19:54;;;;;;;9.73;6.35;;;7.90;99.90;;;;;;5031785;28;20030;-78
2021/01/06 09:22:21;;;;;;;10.98;5.30;;;7.80;99.90;;;;;;5033334;28;20100;-77
2021/01/06 09:24:47;;;;;;;6.97;4.57;;;7.80;99.90;;;;;;5042375;28;20025;-78
2021/01/06 09:27:25;;;;;;;6.93;3.75;;;7.80;99.90;;;;;;5040799;28;20163;-77
2021/01/06 09:29:52;;;;;;;7.75;3.75;;;7.80;99.90;;;;;;5045395;28;20022;-77
2021/01/06 09:32:37;;;;;;;6.00;4.00;;;7.80;99.90;;;;;;5050333;28;20033;-77
2021/01/06 09:35:12;;;;;;;6.65;3.88;;;7.80;99.90;;;;;;5049138;28;20021;-78
2021/01/06 09:37:56;;;;;;;7.88;5.18;;;7.80;99.90;;;;;;5044506;28;20061;-78
2021/01/06 09:40:24;;;;;;;10.70;4.15;;;7.80;99.90;;;;;;5024529;28;20111;-76
2021/01/06 09:42:57;;;;;;;4.85;3.38;;;7.70;99.90;;;;;;5007791;28;20075;-77
2021/01/06 09:45:26;;;;;;;5.72;2.70;;;7.80;99.90;;;;;;5029220;28;20386;-77
2021/01/06 09:47:57;;;;;;;13.00;3.30;;;7.80;99.90;;;;;;5024383;28;20047;-77
2021/01/06 09:50:28;;;;;;;7.35;4.70;;;7.80;99.90;;;;;;5037690;28;20551;-80
2021/01/06 09:52:56;;;;;;;7.60;5.30;;;7.80;99.90;;;;;;5040183;28;20032;-78
2021/01/06 09:55:25;;;;;;;9.18;6.40;;;7.80;99.90;;;;;;5045734;28;20506;-78
2021/01/06 09:58:04;;;;;;;11.60;5.65;;;7.80;99.90;;;;;;5038344;28;20029;-82
2021/01/06 10:00:54;;;;;;;7.43;4.95;;;7.80;99.90;;;;;;5040979;28;20160;-78
2021/01/06 10:03:20;;;;;;;12.73;4.53;;;7.80;99.90;;;;;;5031734;28;20017;-79
2021/01/06 10:06:10;;;;;;;5.78;3.53;;;7.80;99.90;;;;;;5030672;28;20123;-77
2021/01/06 10:08:46;;;;;;;6.07;4.40;;;7.90;99.90;;;;;;5035627;28;20021;-76
2021/01/06 10:11:27;;;;;;;8.35;4.55;;;7.90;99.90;;;;;;5031781;28;20056;-76
2021/01/06 10:14:12;;;;;;;7.93;3.03;;;7.90;99.90;;;;;;5043623;28;20471;-76
2021/01/06 10:16:45;;;;;;;9.75;6.47;;;8.00;99.90;;;;;;5040999;28;20033;-75
2021/01/06 10:19:34;;;;;;;17.85;11.77;;;8.00;99.90;;;;;;5028507;28;20029;-76
2021/01/06 10:22:35;;;;;;;14.30;9.80;;;7.90;99.90;;;;;;5034645;28;20041;-78
2021/01/06 10:25:07;;;;;;;43.50;21.10;;;7.90;99.90;;;;;;5031750;28;20045;-77
2021/01/06 10:27:38;;;;;;;;;;;8.20;99.90;;;;;;5030067;28;20477;-76
2021/01/06 10:30:13;;;;;;;30.37;12.60;;;8.60;99.90;;;;;;5025115;28;19909;-76
2021/01/06 10:32:45;;;;;;;79.18;44.75;;;9.00;99.90;;;;;;5026180;28;20501;-76
2021/01/06 10:36:08;;;;;;;14.98;10.02;;;9.10;99.90;;;;;;5034560;28;20025;-79
2021/01/06 10:38:43;;;;;;;8.85;4.82;;;9.20;99.90;;;;;;4974938;28;20043;-78
2021/01/06 10:41:34;;;;;;;11.43;3.97;;;9.10;99.90;;;;;;5036963;28;20059;-77
2021/01/06 10:44:01;;;;;;;17.45;11.98;;;9.00;99.90;;;;;;5016237;28;20041;-77
2021/01/06 10:47:17;;;;;;;12.40;6.00;;;8.90;99.90;;;;;;5034322;28;20028;-78
2021/01/06 10:49:43;;;;;;;14.85;11.32;;;8.90;99.90;;;;;;4996125;28;20216;-77
2021/01/06 10:52:08;;;;;;;8.98;4.18;;;8.90;99.90;;;;;;5036913;28;20124;-79
2021/01/06 10:54:44;;;;;;;12.63;9.60;;;8.90;99.90;;;;;;5018068;28;20504;-78
2021/01/06 10:57:28;;;;;;;16.50;9.65;;;8.80;99.90;;;;;;5015151;28;20040;-80
2021/01/06 11:00:10;;;;;;;5.80;3.60;;;8.90;99.90;;;;;;5035821;28;20095;-79
2021/01/06 11:02:42;;;;;;;;;;;8.90;99.90;;;;;;5031738;28;20051;-75
2021/01/06 11:05:30;;;;;;;4.30;3.50;;;9.00;99.90;;;;;;5026486;28;19917;-81
2021/01/06 11:08:38;;;;;;;9.35;3.90;;;9.00;99.90;;;;;;5036288;28;20057;-78
2021/01/06 11:11:22;;;;;;;12.32;4.10;;;9.10;99.90;;;;;;5020022;28;20112;-79
2021/01/06 11:14:18;;;;;;;10.35;4.38;;;9.00;99.90;;;;;;5028783;28;20025;-78
2021/01/06 11:16:50;;;;;;;4.60;3.38;;;9.00;99.90;;;;;;5020319;28;20029;-76
2021/01/06 11:19:40;;;;;;;5.68;3.63;;;9.00;99.90;;;;;;5031584;28;20419;-79
2021/01/06 11:22:32;;;;;;;9.55;4.68;;;9.00;99.90;;;;;;5031509;28;20091;-76
2021/01/06 11:25:04;;;;;;;15.18;4.65;;;9.00;99.90;;;;;;5038202;28;20021;-78
2021/01/06 11:28:04;;;;;;;10.05;6.90;;;9.10;99.90;;;;;;5052042;28;20373;-78
2021/01/06 11:30:31;;;;;;;4.78;3.75;;;9.20;99.90;;;;;;5051047;28;20096;-75
2021/01/06 11:33:17;;;;;;;4.70;3.70;;;9.20;99.90;;;;;;5046473;28;20025;-77
2021/01/06 11:36:01;;;;;;;19.90;12.40;;;9.30;99.90;;;;;;5035299;28;20032;-76
2021/01/06 11:38:47;;;;;;;24.25;12.45;;;9.30;99.90;;;;;;5037007;28;20022;-77
2021/01/06 11:41:26;;;;;;;26.25;14.93;;;9.30;99.90;;;;;;5034481;28;20218;-76
2021/01/06 11:43:54;;;;;;;14.50;10.32;;;9.30;99.90;;;;;;5017293;28;20025;-77
2021/01/06 11:46:26;;;;;;;8.35;6.88;;;9.30;99.90;;;;;;5037547;28;20091;-77
2021/01/06 11:49:12;;;;;;;14.45;9.45;;;9.30;99.90;;;;;;5044574;28;20021;-76
2021/01/06 11:52:19;;;;;;;6.97;4.65;;;9.30;99.90;;;;;;4994699;28;20061;-77
2021/01/06 11:55:11;;;;;;;3.17;2.00;;;9.30;99.90;;;;;;5050945;28;20025;-78
2021/01/06 11:57:55;;;;;;;3.85;2.20;;;9.30;99.90;;;;;;5032489;28;20512;-77
2021/01/06 12:00:27;;;;;;;2.58;2.05;;;9.30;99.90;;;;;;5044582;28;20571;-78
2021/01/06 12:03:12;;;;;;;5.15;2.15;;;9.30;99.90;;;;;;5044908;28;20036;-77
2021/01/06 12:06:06;;;;;;;4.47;3.05;;;9.40;99.90;;;;;;5034246;28;20120;-77
2021/01/06 12:09:00;;;;;;;3.30;2.38;;;9.50;99.90;;;;;;5045562;28;20029;-78
2021/01/06 12:11:35;;;;;;;6.38;4.40;;;9.60;99.90;;;;;;4988803;28;20033;-77
2021/01/06 12:14:42;;;;;;;4.13;3.20;;;9.70;99.90;;;;;;5046143;28;20022;-78
2021/01/06 12:17:26;;;;;;;4.15;2.75;;;9.70;99.90;;;;;;5049962;28;20480;-78
2021/01/06 12:20:19;;;;;;;4.50;2.40;;;9.90;99.90;;;;;;5052482;28;20033;-77
2021/01/06 12:23:13;;;;;;;2.00;1.75;;;10.00;99.90;;;;;;5047909;28;20044;-78
2021/01/06 12:25:45;;;;;;;5.25;1.80;;;10.10;99.90;;;;;;5016208;28;20029;-73
2021/01/06 12:28:44;;;;;;;2.03;1.60;;;10.20;99.90;;;;;;5029251;28;20032;-75
2021/01/06 12:31:20;;;;;;;3.42;2.03;;;10.10;99.90;;;;;;5049082;28;20496;-75
2021/01/06 12:34:00;;;;;;;6.70;1.88;;;10.00;99.90;;;;;;5031645;28;20029;-79
2021/01/06 12:36:30;;;;;;;3.85;2.00;;;9.90;99.90;;;;;;5046870;28;20420;-76
2021/01/06 12:39:24;;;;;;;2.60;2.05;;;9.90;99.90;;;;;;5047296;28;20032;-79
2021/01/06 12:41:58;;;;;;;4.38;2.30;;;9.70;99.90;;;;;;5046850;28;20025;-78
2021/01/06 12:44:29;;;;;;;8.45;3.30;;;9.60;99.90;;;;;;5046873;28;20013;-83
2021/01/06 12:47:09;;;;;;;6.80;3.37;;;9.60;99.90;;;;;;5047758;28;20017;-82
2021/01/06 12:50:05;;;;;;;5.15;2.75;;;9.50;99.90;;;;;;5049852;28;20013;-77
2021/01/06 12:52:36;;;;;;;3.50;2.33;;;9.50;99.90;;;;;;5046774;28;20025;-77
2021/01/06 12:55:34;;;;;;;8.88;3.60;;;9.50;99.90;;;;;;5049251;28;20556;-77
2021/01/06 12:58:00;;;;;;;4.90;3.33;;;9.50;99.90;;;;;;5033853;28;20473;-78
2021/01/06 13:00:38;;;;;;;8.18;3.67;;;9.60;99.90;;;;;;5046325;28;20049;-79
2021/01/06 13:03:45;;;;;;;5.18;3.33;;;9.70;99.90;;;;;;5048531;28;20021;-79
2021/01/06 13:06:14;;;;;;;10.50;3.65;;;9.90;99.90;;;;;;5046148;28;20068;-79
2021/01/06 13:09:06;;;;;;;3.33;2.50;;;10.00;99.90;;;;;;5046158;28;20052;-80
2021/01/06 13:11:37;;;;;;;4.28;2.03;;;10.10;99.90;;;;;;5020685;28;20041;-79
2021/01/06 13:14:21;;;;;;;3.63;2.40;;;10.20;99.90;;;;;;5034307;28;20026;-80
2021/01/06 13:17:00;;;;;;;2.80;1.88;;;10.20;99.90;;;;;;5032290;28;20026;-78
2021/01/06 13:19:41;;;;;;;2.63;1.48;;;10.20;99.90;;;;;;5035616;28;20014;-78
2021/01/06 13:22:26;;;;;;;2.50;1.48;;;10.20;99.90;;;;;;5050898;28;20477;-81
2021/01/06 13:25:10;;;;;;;4.80;1.70;;;10.20;99.90;;;;;;5043599;28;20039;-78
2021/01/06 13:27:42;;;;;;;1.27;1.17;;;10.30;99.90;;;;;;5047924;28;20029;-82
2021/01/06 13:30:19;;;;;;;1.30;1.20;;;10.20;99.90;;;;;;5044287;28;20033;-84
2021/01/06 13:33:15;;;;;;;7.95;1.30;;;10.20;99.90;;;;;;5041493;28;20033;-79
2021/01/06 13:35:46;;;;;;;2.90;1.55;;;10.20;99.90;;;;;;5050296;28;20025;-79
2021/01/06 13:38:14;;;;;;;2.30;1.55;;;10.10;99.90;;;;;;5019440;28;20434;-77
2021/01/06 13:40:44;;;;;;;10.35;1.88;;;10.10;99.90;;;;;;5044626;28;20032;-82
2021/01/06 13:43:35;;;;;;;2.75;1.50;;;10.00;99.90;;;;;;5049237;28;20039;-86